Time;durP1;ratioP1;P1;durP2;ratioP2;P2;SDS_P1;SDS_P2;PMS_P1;PMS_P2;Temp;Humidity;BMP_temperature;BMP_pressure;BME280_temperature;BME280_humidity;BME280_pressure;Samples;Min_cycle;Max_cycle;Signal;HPM_P1;HPM_P2
2023/09/24 00:00:25;;;;;;;0.50;0.50;;;;;;;11.30;91.46;97573.34;29396;254;63009;-55
2023/09/24 00:00:58;;;;;;;0.50;0.50;;;;;;;11.31;91.84;97579.59;29396;216;63004;-55
2023/09/24 00:01:30;;;;;;;0.50;0.50;;;;;;;11.30;92.10;97578.78;29396;213;63008;-53
2023/09/24 00:02:04;;;;;;;0.50;0.50;;;;;;;11.29;91.62;97577.16;29396;212;63004;-54
2023/09/24 00:02:36;;;;;;;0.50;0.50;;;;;;;11.28;91.71;97570.09;29395;203;64014;-54
2023/09/24 00:03:10;;;;;;;0.50;0.50;;;;;;;11.27;91.96;97567.66;29395;244;64009;-52
2023/09/24 00:03:42;;;;;;;0.50;0.50;;;;;;;11.27;91.83;97578.53;29395;227;64014;-53
2023/09/24 00:04:13;;;;;;;0.50;0.50;;;;;;;11.27;92.14;97573.91;29395;196;64009;-53
2023/09/24 00:04:45;;;;;;;0.50;0.50;;;;;;;11.28;92.14;97574.72;29396;217;63009;-53
2023/09/24 00:05:18;;;;;;;0.50;0.50;;;;;;;11.27;91.86;97579.34;29396;224;63005;-53
2023/09/24 00:05:49;;;;;;;0.40;0.40;;;;;;;11.28;92.01;97575.53;29396;269;63009;-54
2023/09/24 00:06:21;;;;;;;0.50;0.50;;;;;;;11.27;91.78;97581.25;29396;213;63004;-54
2023/09/24 00:06:52;;;;;;;0.50;0.50;;;;;;;11.28;91.81;97580.97;29396;233;63009;-53
2023/09/24 00:07:25;;;;;;;0.50;0.50;;;;;;;11.29;92.04;97577.16;29396;241;63004;-53
2023/09/24 00:07:57;;;;;;;0.40;0.40;;;;;;;11.28;92.46;97583.69;29396;214;63009;-53
2023/09/24 00:08:29;;;;;;;0.45;0.45;;;;;;;11.28;91.90;97580.97;29396;218;63004;-53
2023/09/24 00:09:01;;;;;;;0.50;0.50;;;;;;;11.28;91.95;97580.16;29396;210;63008;-54
2023/09/24 00:09:32;;;;;;;0.50;0.50;;;;;;;11.27;92.03;97587.50;29395;216;64008;-53
2023/09/24 00:10:04;;;;;;;0.50;0.50;;;;;;;11.28;92.00;97582.88;29396;215;63009;-53
2023/09/24 00:10:35;;;;;;;1.17;1.17;;;;;;;11.28;91.66;97575.53;29396;231;63009;-53
2023/09/24 00:11:08;;;;;;;0.50;0.50;;;;;;;11.30;91.65;97586.13;29395;202;64013;-53
2023/09/24 00:11:39;;;;;;;0.50;0.50;;;;;;;11.30;91.90;97581.50;29396;207;63005;-53
2023/09/24 00:12:11;;;;;;;0.50;0.50;;;;;;;11.30;92.17;97584.22;29396;237;63009;-53
2023/09/24 00:12:43;;;;;;;0.50;0.50;;;;;;;11.30;91.96;97581.50;29396;229;63005;-53
2023/09/24 00:13:14;;;;;;;0.50;0.50;;;;;;;11.30;91.91;97584.22;29395;216;64013;-53
2023/09/24 00:13:46;;;;;;;0.50;0.50;;;;;;;11.31;91.85;97587.75;29396;253;63004;-54
2023/09/24 00:14:17;;;;;;;0.50;0.50;;;;;;;11.30;91.92;97578.78;29396;220;63009;-53
2023/09/24 00:14:50;;;;;;;0.50;0.50;;;;;;;11.30;91.53;97586.94;29396;252;63004;-53
2023/09/24 00:15:22;;;;;;;0.50;0.50;;;;;;;11.31;92.32;97579.59;29396;197;63009;-53
2023/09/24 00:15:53;;;;;;;0.50;0.50;;;;;;;11.31;92.45;97585.03;29396;198;63004;-53
2023/09/24 00:16:24;;;;;;;0.50;0.50;;;;;;;11.30;92.34;97584.22;29396;242;63016;-54
2023/09/24 00:16:56;;;;;;;0.50;0.50;;;;;;;11.29;92.50;97593.47;29395;239;64005;-54
2023/09/24 00:17:27;;;;;;;0.50;0.50;;;;;;;11.27;92.94;97587.50;29396;197;63009;-53
2023/09/24 00:18:03;;;;;;;0.50;0.50;;;;;;;11.27;92.39;97589.41;29396;209;63005;-53
2023/09/24 00:18:34;;;;;;;0.50;0.50;;;;;;;11.26;92.14;97583.16;29395;244;64013;-53
2023/09/24 00:19:06;;;;;;;0.50;0.50;;;;;;;11.27;92.06;97590.22;29396;244;63011;-53
2023/09/24 00:19:37;;;;;;;0.50;0.50;;;;;;;11.28;91.74;97588.31;29395;244;64013;-53
2023/09/24 00:20:09;;;;;;;0.50;0.50;;;;;;;11.29;91.90;97588.03;29395;255;64000;-53
2023/09/24 00:20:41;;;;;;;0.50;0.50;;;;;;;11.29;92.02;97582.59;29395;216;64018;-54
2023/09/24 00:21:13;;;;;;;0.50;0.50;;;;;;;11.28;92.04;97586.41;29396;271;63004;-53
2023/09/24 00:21:45;;;;;;;0.50;0.50;;;;;;;11.27;92.24;97584.78;29396;294;63009;-54
2023/09/24 00:22:17;;;;;;;0.50;0.50;;;;;;;11.26;91.72;97583.16;29396;204;63004;-54
2023/09/24 00:22:48;;;;;;;0.40;0.40;;;;;;;11.28;92.04;97585.59;29396;195;63009;-54
2023/09/24 00:23:20;;;;;;;0.43;0.43;;;;;;;11.26;91.84;97583.16;29396;230;63008;-54
2023/09/24 00:23:52;;;;;;;0.50;0.50;;;;;;;11.27;92.11;97584.78;29396;210;63008;-52
2023/09/24 00:24:23;;;;;;;0.50;0.50;;;;;;;11.26;91.62;97588.59;29396;202;63005;-54
2023/09/24 00:24:54;;;;;;;0.50;0.50;;;;;;;11.27;91.58;97595.66;29396;231;63009;-54
2023/09/24 00:25:26;;;;;;;0.50;0.50;;;;;;;11.31;91.69;97595.91;29395;197;64009;-53
2023/09/24 00:25:57;;;;;;;0.50;0.50;;;;;;;11.29;91.40;97589.94;29396;212;63009;-53
2023/09/24 00:26:29;;;;;;;3.40;3.28;;;;;;;11.28;91.17;97586.41;29396;223;63005;-53
2023/09/24 00:27:01;;;;;;;0.50;0.50;;;;;;;11.26;91.27;97591.31;29396;202;63009;-53
2023/09/24 00:27:33;;;;;;;0.50;0.50;;;;;;;11.26;91.18;97588.59;29395;235;64009;-53
2023/09/24 00:28:07;;;;;;;0.50;0.50;;;;;;;11.25;91.81;97592.41;29396;198;63009;-53
2023/09/24 00:28:38;;;;;;;0.40;0.40;;;;;;;11.23;92.08;97599.19;29395;199;64009;-53
2023/09/24 00:29:10;;;;;;;0.50;0.50;;;;;;;11.21;92.59;97601.38;29396;264;63009;-53
2023/09/24 00:29:42;;;;;;;0.50;0.50;;;;;;;11.17;92.71;97594.88;29396;208;63004;-53
2023/09/24 00:30:14;;;;;;;0.50;0.50;;;;;;;11.13;93.10;97597.34;29396;231;63009;-54
2023/09/24 00:30:46;;;;;;;0.50;0.50;;;;;;;11.13;92.71;97599.22;29395;204;64002;-53
2023/09/24 00:31:17;;;;;;;0.50;0.50;;;;;;;11.14;92.95;97595.44;29396;233;63008;-53
2023/09/24 00:31:48;;;;;;;0.50;0.50;;;;;;;11.14;92.41;97596.25;29396;227;63005;-53
2023/09/24 00:32:20;;;;;;;0.50;0.50;;;;;;;11.17;92.43;97603.03;29396;213;63009;-54
2023/09/24 00:32:53;;;;;;;0.50;0.50;;;;;;;11.16;93.11;97596.78;29396;209;63005;-55
2023/09/24 00:33:25;;;;;;;0.50;0.50;;;;;;;11.15;92.96;97597.06;29396;244;63009;-53
2023/09/24 00:34:00;;;;;;;0.50;0.50;;;;;;;11.14;92.55;97598.97;29395;257;64009;-54
2023/09/24 00:34:31;;;;;;;0.50;0.50;;;;;;;11.13;92.77;97600.06;29396;255;63015;-54
2023/09/24 00:35:05;;;;;;;0.50;0.50;;;;;;;11.12;92.50;97593.00;29396;227;63005;-54
2023/09/24 00:35:36;;;;;;;0.45;0.45;;;;;;;11.12;93.35;97597.59;29396;199;63009;-66
2023/09/24 00:36:07;;;;;;;0.50;0.50;;;;;;;11.11;92.83;97596.78;29395;205;64004;-54
2023/09/24 00:36:38;;;;;;;0.50;0.50;;;;;;;11.08;93.18;97597.38;29396;236;63009;-54
2023/09/24 00:37:11;;;;;;;0.50;0.50;;;;;;;11.08;92.70;97598.19;29396;199;63004;-53
2023/09/24 00:37:42;;;;;;;0.50;0.50;;;;;;;11.08;92.93;97602.81;29396;197;63009;-54
2023/09/24 00:38:14;;;;;;;0.50;0.50;;;;;;;11.07;92.96;97591.13;29396;196;63004;-54
2023/09/24 00:38:45;;;;;;;0.50;0.50;;;;;;;11.05;92.97;97595.22;29397;201;63008;-54
2023/09/24 00:39:17;;;;;;;0.50;0.50;;;;;;;11.04;92.94;97596.31;29396;202;64009;-53
2023/09/24 00:39:49;;;;;;;0.50;0.50;;;;;;;11.04;92.95;97599.03;29397;200;63009;-68
2023/09/24 00:40:20;;;;;;;0.50;0.50;;;;;;;11.02;92.74;97599.31;29397;210;63005;-53
2023/09/24 00:40:52;;;;;;;0.50;0.50;;;;;;;11.01;92.85;97596.88;29396;253;64013;-53
2023/09/24 00:41:23;;;;;;;0.50;0.50;;;;;;;11.01;92.93;97599.59;29397;208;63005;-54
2023/09/24 00:41:55;;;;;;;0.50;0.50;;;;;;;10.97;92.91;97606.66;29397;213;63009;-53
2023/09/24 00:42:29;;;;;;;0.50;0.50;;;;;;;10.95;92.79;97596.06;29397;234;63011;-53
2023/09/24 00:43:01;;;;;;;0.50;0.50;;;;;;;10.96;93.06;97594.16;29397;220;63009;-54
2023/09/24 00:43:34;;;;;;;0.50;0.50;;;;;;;10.96;93.04;97594.97;29397;206;63011;-53
2023/09/24 00:44:06;;;;;;;0.50;0.50;;;;;;;10.95;93.47;97603.41;29396;238;64013;-54
2023/09/24 00:44:37;;;;;;;0.50;0.50;;;;;;;10.92;93.29;97593.09;29397;219;63004;-54
2023/09/24 00:45:12;;;;;;;0.50;0.50;;;;;;;10.94;93.29;97607.22;29397;226;63009;-54
2023/09/24 00:45:44;;;;;;;0.50;0.50;;;;;;;10.94;93.01;97597.16;29397;246;63004;-54
2023/09/24 00:46:16;;;;;;;0.50;0.50;;;;;;;10.94;93.23;97596.34;29397;224;63008;-54
2023/09/24 00:46:47;;;;;;;0.50;0.50;;;;;;;10.91;93.55;97596.91;29397;213;63005;-54
2023/09/24 00:47:19;;;;;;;0.50;0.50;;;;;;;10.88;94.16;97597.44;29397;246;63009;-53
2023/09/24 00:47:57;;;;;;;0.50;0.50;;;;;;;10.86;94.50;97610.50;29396;269;64009;-54
2023/09/24 00:48:30;;;;;;;0.50;0.50;;;;;;;10.85;95.35;97600.72;29397;217;63009;-53
2023/09/24 00:49:03;;;;;;;0.50;0.50;;;;;;;10.84;95.16;97609.94;29397;389;63005;-68
2023/09/24 00:49:35;;;;;;;0.50;0.50;;;;;;;10.83;94.85;97603.72;29396;226;63009;-54
2023/09/24 00:50:09;;;;;;;0.50;0.50;;;;;;;10.85;94.61;97608.88;29397;244;63005;-67
2023/09/24 00:50:41;;;;;;;0.50;0.50;;;;;;;10.87;94.46;97603.97;29396;231;63009;-53
2023/09/24 00:51:17;;;;;;;0.50;0.50;;;;;;;10.90;93.87;97603.41;29397;242;63004;-54
2023/09/24 00:51:51;;;;;;;0.50;0.50;;;;;;;10.91;93.65;97607.75;29396;204;63009;-54
2023/09/24 00:52:26;;;;;;;0.50;0.50;;;;;;;10.91;93.79;97597.72;29396;226;63004;-53
2023/09/24 00:52:57;;;;;;;0.50;0.50;;;;;;;10.91;94.64;97607.75;29395;260;64013;-54
2023/09/24 00:53:30;;;;;;;0.50;0.50;;;;;;;10.89;94.48;97610.75;29397;252;63010;-53
2023/09/24 00:54:03;;;;;;;0.50;0.50;;;;;;;10.84;95.27;97610.75;29396;267;63008;-69
2023/09/24 00:54:34;;;;;;;0.50;0.50;;;;;;;10.80;95.64;97606.16;29396;233;63009;-68
2023/09/24 00:55:08;;;;;;;0.50;0.50;;;;;;;10.79;95.51;97607.25;29397;208;63009;-54
2023/09/24 00:55:41;;;;;;;0.50;0.50;;;;;;;10.79;95.06;97604.53;29396;220;63005;-54
2023/09/24 00:56:14;;;;;;;0.50;0.50;;;;;;;10.80;94.93;97595.31;29396;239;63009;-53
2023/09/24 00:56:45;;;;;;;0.60;0.60;;;;;;;10.82;94.65;97604.78;29396;227;63005;-67
2023/09/24 00:57:17;;;;;;;0.50;0.50;;;;;;;10.84;94.79;97597.19;29396;197;63009;-54
2023/09/24 00:57:50;;;;;;;0.50;0.50;;;;;;;10.86;94.58;97595.00;29396;237;63005;-53
2023/09/24 00:58:27;;;;;;;0.50;0.50;;;;;;;10.87;94.57;97601.25;29395;232;64013;-53
2023/09/24 00:58:59;;;;;;;0.50;0.50;;;;;;;10.88;94.15;97606.41;29396;203;63004;-53
2023/09/24 00:59:30;;;;;;;0.50;0.50;;;;;;;10.89;94.32;97599.06;29396;243;63016;-53
2023/09/24 01:00:13;;;;;;;0.50;0.50;;;;;;;10.90;94.02;97600.69;29396;224;63004;-53
2023/09/24 01:00:46;;;;;;;0.50;0.50;;;;;;;10.92;93.97;97598.53;29396;219;63009;-54
2023/09/24 01:01:24;;;;;;;0.50;0.50;;;;;;;10.92;93.54;97603.97;29396;223;63004;-54
2023/09/24 01:01:57;;;;;;;0.50;0.50;;;;;;;10.94;93.45;97601.78;29395;202;64014;-54
2023/09/24 01:02:32;;;;;;;0.50;0.50;;;;;;;10.94;92.85;97597.16;29396;212;63005;-54
2023/09/24 01:03:05;;;;;;;0.50;0.50;;;;;;;10.93;93.99;97605.59;29396;234;63009;-54
2023/09/24 01:03:40;;;;;;;0.50;0.50;;;;;;;10.90;94.33;97606.13;29396;197;63005;-68
2023/09/24 01:04:12;;;;;;;0.50;0.50;;;;;;;10.85;95.03;97608.88;29396;235;63012;-68
2023/09/24 01:04:45;;;;;;;0.50;0.50;;;;;;;10.81;94.43;97605.88;29396;212;63005;-54
2023/09/24 01:05:18;;;;;;;0.50;0.50;;;;;;;10.82;94.46;97614.84;29396;196;63015;-54
2023/09/24 01:05:55;;;;;;;0.50;0.50;;;;;;;10.85;94.24;97611.56;29396;222;63005;-55
2023/09/24 01:06:29;;;;;;;0.50;0.50;;;;;;;10.84;94.30;97615.37;29396;249;63009;-54
2023/09/24 01:07:02;;;;;;;0.50;0.50;;;;;;;10.83;93.87;97611.84;29395;206;64009;-54
2023/09/24 01:07:34;;;;;;;0.50;0.50;;;;;;;10.84;94.06;97609.94;29396;219;63009;-53
2023/09/24 01:08:06;;;;;;;0.50;0.50;;;;;;;10.84;94.01;97615.37;29396;334;63004;-53
2023/09/24 01:08:37;;;;;;;0.50;0.50;;;;;;;10.83;94.49;97611.03;29396;214;63008;-54
2023/09/24 01:09:10;;;;;;;0.50;0.50;;;;;;;10.82;94.16;97615.66;29396;240;63004;-53
2023/09/24 01:09:42;;;;;;;0.50;0.50;;;;;;;10.80;94.37;97619.72;29396;238;63009;-55
2023/09/24 01:10:15;;;;;;;0.50;0.50;;;;;;;10.78;94.42;97621.91;29396;223;63005;-54
2023/09/24 01:10:48;;;;;;;0.50;0.50;;;;;;;10.80;94.69;97617.03;29396;207;63009;-54
2023/09/24 01:11:20;;;;;;;0.50;0.50;;;;;;;10.80;94.51;97623.25;29396;222;63000;-54
2023/09/24 01:11:54;;;;;;;0.50;0.50;;;;;;;10.83;94.36;97627.31;29396;284;63009;-53
2023/09/24 01:12:26;;;;;;;0.50;0.50;;;;;;;10.82;93.96;97618.38;29395;228;64009;-53
2023/09/24 01:13:04;;;;;;;0.50;0.50;;;;;;;10.83;94.04;97628.13;29396;238;63009;-53
2023/09/24 01:13:42;;;;;;;0.50;0.50;;;;;;;10.87;93.97;97628.41;29396;306;63004;-53
2023/09/24 01:14:14;;;;;;;0.50;0.50;;;;;;;10.88;94.06;97630.03;29396;235;63009;-54
2023/09/24 01:14:45;;;;;;;0.50;0.50;;;;;;;10.88;93.56;97624.59;29396;222;63004;-53
2023/09/24 01:15:17;;;;;;;0.50;0.50;;;;;;;10.87;94.21;97620.25;29396;240;63008;-53
2023/09/24 01:15:49;;;;;;;0.50;0.50;;;;;;;10.87;94.12;97622.97;29396;202;63004;-53
2023/09/24 01:16:21;;;;;;;0.50;0.50;;;;;;;10.86;93.87;97632.22;29396;249;63008;-56
2023/09/24 01:16:52;;;;;;;0.50;0.50;;;;;;;10.86;93.76;97627.59;29396;263;63004;-53
2023/09/24 01:17:27;;;;;;;0.50;0.50;;;;;;;10.87;94.00;97625.69;29396;225;63009;-53
2023/09/24 01:18:02;;;;;;;0.50;0.50;;;;;;;10.87;94.09;97625.69;29395;219;64009;-54
2023/09/24 01:18:36;;;;;;;0.50;0.50;;;;;;;10.88;93.75;97624.59;29396;207;63009;-54
2023/09/24 01:19:08;;;;;;;0.50;0.50;;;;;;;10.89;93.87;97628.94;29396;205;63017;-54
2023/09/24 01:19:40;;;;;;;0.50;0.50;;;;;;;10.89;93.98;97631.66;29396;202;63009;-53
2023/09/24 01:20:13;;;;;;;0.50;0.50;;;;;;;10.89;93.73;97637.91;29396;214;63005;-53
2023/09/24 01:20:44;;;;;;;0.50;0.50;;;;;;;10.89;93.62;97626.22;29396;203;63009;-54
2023/09/24 01:21:17;;;;;;;0.50;0.50;;;;;;;10.88;93.78;97628.13;29396;315;63004;-55
2023/09/24 01:21:50;;;;;;;0.50;0.50;;;;;;;10.87;94.38;97628.41;29395;219;64009;-54
2023/09/24 01:22:22;;;;;;;0.50;0.50;;;;;;;10.86;94.07;97626.78;29396;262;63004;-53
2023/09/24 01:22:53;;;;;;;0.50;0.50;;;;;;;10.84;94.49;97626.25;29396;216;63009;-53
2023/09/24 01:23:24;;;;;;;0.50;0.50;;;;;;;10.81;94.39;97624.06;29395;238;64021;-54
2023/09/24 01:23:59;;;;;;;0.50;0.50;;;;;;;10.78;94.67;97627.34;29396;235;63009;-54
2023/09/24 01:24:31;;;;;;;0.50;0.50;;;;;;;10.78;94.54;97621.91;29396;361;63005;-54
2023/09/24 01:25:03;;;;;;;0.50;0.50;;;;;;;10.79;94.68;97626.25;29396;261;63009;-53
2023/09/24 01:25:37;;;;;;;0.50;0.50;;;;;;;10.78;94.63;97624.63;29396;217;63005;-54
2023/09/24 01:26:10;;;;;;;0.50;0.50;;;;;;;10.77;94.62;97631.13;29396;241;63009;-54
2023/09/24 01:26:41;;;;;;;0.50;0.50;;;;;;;10.77;94.61;97628.44;29396;230;63005;-54
2023/09/24 01:27:13;;;;;;;0.98;0.98;;;;;;;10.74;94.96;97625.19;29396;255;63009;-54
2023/09/24 01:27:46;;;;;;;0.50;0.50;;;;;;;10.73;94.86;97626.28;29396;218;63005;-54
2023/09/24 01:28:17;;;;;;;0.50;0.50;;;;;;;10.70;95.35;97629.56;29396;245;63020;-53
2023/09/24 01:28:49;;;;;;;0.50;0.50;;;;;;;10.66;95.45;97623.03;29395;197;64009;-54
2023/09/24 01:29:20;;;;;;;0.50;0.50;;;;;;;10.65;95.47;97624.13;29396;220;63009;-54
2023/09/24 01:29:54;;;;;;;0.50;0.50;;;;;;;10.65;95.26;97631.47;29396;335;63004;-53
2023/09/24 01:30:28;;;;;;;0.50;0.50;;;;;;;10.66;95.79;97622.22;29396;228;63008;-54
2023/09/24 01:31:00;;;;;;;0.50;0.50;;;;;;;10.66;95.85;97628.47;29396;228;63004;-54
2023/09/24 01:31:31;;;;;;;0.50;0.50;;;;;;;10.67;95.75;97629.28;29396;217;63009;-54
2023/09/24 01:32:06;;;;;;;0.50;0.50;;;;;;;10.67;95.41;97619.25;29397;258;63005;-53
2023/09/24 01:32:37;;;;;;;0.50;0.50;;;;;;;10.64;95.17;97619.78;29396;225;63009;-54
2023/09/24 01:33:09;;;;;;;0.50;0.50;;;;;;;10.65;95.28;97620.59;29396;230;63005;-53
2023/09/24 01:33:43;;;;;;;0.50;0.50;;;;;;;10.62;95.87;97624.69;29396;263;63009;-54
2023/09/24 01:34:15;;;;;;;0.50;0.50;;;;;;;10.57;95.95;97624.69;29395;211;64009;-53
2023/09/24 01:34:48;;;;;;;0.50;0.50;;;;;;;10.57;95.59;97623.87;29396;262;63009;-53
2023/09/24 01:35:26;;;;;;;0.50;0.50;;;;;;;10.57;95.63;97621.97;29396;218;63005;-54
2023/09/24 01:35:58;;;;;;;0.50;0.50;;;;;;;10.58;95.79;97623.59;29396;196;63009;-54
2023/09/24 01:36:30;;;;;;;0.50;0.50;;;;;;;10.58;95.41;97612.75;29396;209;63004;-53
2023/09/24 01:37:08;;;;;;;0.50;0.50;;;;;;;10.58;95.65;97618.19;29396;243;63009;-53
2023/09/24 01:37:39;;;;;;;0.50;0.50;;;;;;;10.59;95.36;97616.28;29396;206;63004;-53
2023/09/24 01:38:11;;;;;;;0.50;0.50;;;;;;;10.59;95.56;97611.66;29396;222;63008;-53
2023/09/24 01:38:43;;;;;;;0.50;0.50;;;;;;;10.60;95.09;97612.47;29396;205;63005;-53
2023/09/24 01:39:19;;;;;;;0.50;0.50;;;;;;;10.59;95.05;97617.09;29395;204;64014;-52
2023/09/24 01:39:54;;;;;;;0.50;0.50;;;;;;;10.56;95.08;97614.91;29396;253;63005;-54
2023/09/24 01:40:27;;;;;;;0.50;0.50;;;;;;;10.54;95.66;97617.09;29396;219;63009;-53
2023/09/24 01:41:00;;;;;;;0.50;0.50;;;;;;;10.52;95.32;97616.56;29396;218;63005;-54
2023/09/24 01:41:31;;;;;;;0.50;0.50;;;;;;;10.52;95.50;97616.56;29397;243;63009;-53
2023/09/24 01:42:05;;;;;;;0.40;0.40;;;;;;;10.52;95.92;97621.97;29395;256;64009;-54
2023/09/24 01:42:36;;;;;;;0.50;0.50;;;;;;;10.52;95.88;97621.97;29397;229;63009;-53
2023/09/24 01:43:08;;;;;;;0.50;0.50;;;;;;;10.53;95.59;97617.38;29397;215;63004;-53
2023/09/24 01:43:43;;;;;;;0.50;0.50;;;;;;;10.52;95.53;97613.03;29397;234;63009;-54
2023/09/24 01:44:16;;;;;;;0.50;0.50;;;;;;;10.50;95.50;97616.00;29397;202;63004;-53
2023/09/24 01:44:48;;;;;;;0.50;0.50;;;;;;;10.50;95.91;97620.63;29396;244;63009;-54
2023/09/24 01:45:19;;;;;;;0.50;0.50;;;;;;;10.47;96.19;97624.69;29397;220;63004;-54
2023/09/24 01:45:51;;;;;;;0.50;0.50;;;;;;;10.45;96.80;97626.06;29396;238;63008;-56
2023/09/24 01:46:22;;;;;;;0.50;0.50;;;;;;;10.39;96.85;97625.28;29394;329;64009;-54
2023/09/24 01:46:53;;;;;;;0.50;0.50;;;;;;;10.35;97.17;97621.47;29394;239;64014;-68
2023/09/24 01:47:24;;;;;;;0.50;0.50;;;;;;;10.32;97.27;97628.25;29395;237;63005;-55
2023/09/24 01:47:56;;;;;;;0.50;0.50;;;;;;;10.29;97.61;97628.81;29397;233;63009;-53
2023/09/24 01:48:28;;;;;;;0.50;0.50;;;;;;;10.28;97.14;97626.38;29395;248;63011;-53
2023/09/24 01:49:00;;;;;;;0.50;0.50;;;;;;;10.31;97.54;97625.81;29395;216;63009;-53
2023/09/24 01:49:31;;;;;;;0.40;0.40;;;;;;;10.33;97.21;97619.03;29395;218;63005;-53
2023/09/24 01:50:06;;;;;;;0.50;0.50;;;;;;;10.35;96.98;97621.47;29395;262;63009;-55
2023/09/24 01:50:38;;;;;;;0.50;0.50;;;;;;;10.37;96.85;97622.03;29393;227;64009;-54
2023/09/24 01:51:10;;;;;;;0.43;0.43;;;;;;;10.37;97.07;97619.31;29395;202;63009;-54
2023/09/24 01:51:44;;;;;;;0.50;0.50;;;;;;;10.36;96.76;97628.53;29395;224;63004;-54
2023/09/24 01:52:16;;;;;;;0.50;0.50;;;;;;;10.36;97.10;97618.50;29395;226;63009;-54
2023/09/24 01:52:47;;;;;;;0.50;0.50;;;;;;;10.36;96.93;97618.50;29395;196;63015;-54
2023/09/24 01:53:19;;;;;;;0.50;0.50;;;;;;;10.36;97.10;97623.09;29395;265;63008;-54
2023/09/24 01:53:50;;;;;;;0.50;0.50;;;;;;;10.35;97.14;97621.47;29395;263;63005;-54
2023/09/24 01:54:25;;;;;;;0.50;0.50;;;;;;;10.34;97.16;97619.84;29393;205;64014;-54
2023/09/24 01:54:57;;;;;;;0.50;0.50;;;;;;;10.30;97.98;97622.31;29394;197;64005;-54
2023/09/24 01:55:29;;;;;;;0.40;0.40;;;;;;;10.29;97.87;97628.00;29395;231;63009;-53
2023/09/24 01:56:02;;;;;;;0.50;0.50;;;;;;;10.27;97.80;97620.12;29395;265;63005;-54
2023/09/24 01:56:35;;;;;;;0.50;0.50;;;;;;;10.27;98.04;97624.75;29395;247;63009;-54
2023/09/24 01:57:07;;;;;;;0.50;0.50;;;;;;;10.30;98.22;97632.34;29395;250;63005;-54
2023/09/24 01:57:40;;;;;;;0.50;0.50;;;;;;;10.31;98.08;97620.41;29395;237;63009;-54
2023/09/24 01:58:12;;;;;;;0.50;0.50;;;;;;;10.32;97.75;97622.03;29395;207;63004;-52
2023/09/24 01:58:43;;;;;;;0.50;0.50;;;;;;;10.33;97.76;97629.91;29396;251;63009;-54
2023/09/24 01:59:15;;;;;;;0.50;0.50;;;;;;;10.34;97.59;97628.00;29393;223;64009;-54
2023/09/24 01:59:46;;;;;;;0.50;0.50;;;;;;;10.34;97.12;97626.09;29393;237;64013;-54
2023/09/24 02:00:25;;;;;;;0.50;0.50;;;;;;;10.35;96.97;97629.63;29395;251;63004;-54
2023/09/24 02:00:56;;;;;;;0.50;0.50;;;;;;;10.36;96.86;97631.25;29395;253;63008;-53
2023/09/24 02:01:28;;;;;;;0.50;0.50;;;;;;;10.35;96.94;97626.91;29395;214;63005;-54
2023/09/24 02:01:59;;;;;;;0.50;0.50;;;;;;;10.35;96.91;97624.19;29393;217;64014;-53
2023/09/24 02:02:33;;;;;;;0.50;0.50;;;;;;;10.33;96.77;97629.09;29395;202;63005;-56
2023/09/24 02:03:09;;;;;;;0.50;0.50;;;;;;;10.34;96.81;97622.56;29395;224;63009;-54
2023/09/24 02:03:41;;;;;;;0.50;0.50;;;;;;;10.34;96.70;97623.37;29395;227;63005;-54
2023/09/24 02:04:12;;;;;;;0.40;0.40;;;;;;;10.34;96.81;97630.72;29395;207;63025;-53
2023/09/24 02:04:43;;;;;;;0.50;0.50;;;;;;;10.34;96.51;97630.72;29395;228;63005;-54
2023/09/24 02:05:15;;;;;;;0.50;0.50;;;;;;;10.33;96.67;97629.91;29393;233;64013;-54
2023/09/24 02:05:46;;;;;;;0.50;0.50;;;;;;;10.34;96.63;97619.84;29393;228;64009;-54
2023/09/24 02:06:18;;;;;;;0.50;0.50;;;;;;;10.33;96.55;97619.03;29395;227;63009;-54
2023/09/24 02:06:49;;;;;;;0.50;0.50;;;;;;;10.34;96.37;97619.84;29395;345;63004;-54
2023/09/24 02:07:21;;;;;;;0.50;0.50;;;;;;;10.33;96.34;97623.66;29395;222;63009;-54
2023/09/24 02:07:53;;;;;;;0.50;0.50;;;;;;;10.33;95.99;97618.22;29395;247;63000;-54
2023/09/24 02:08:25;;;;;;;0.50;0.50;;;;;;;10.32;96.29;97622.03;29395;249;63008;-54
2023/09/24 02:08:56;;;;;;;0.50;0.50;;;;;;;10.31;96.26;97623.94;29395;267;63005;-54
2023/09/24 02:09:28;;;;;;;0.50;0.50;;;;;;;10.30;96.59;97629.63;29395;212;63009;-54
2023/09/24 02:09:59;;;;;;;0.50;0.50;;;;;;;10.30;96.25;97618.78;29395;255;63005;-53
2023/09/24 02:10:30;;;;;;;0.50;0.50;;;;;;;10.29;96.36;97622.56;29395;209;63009;-53
2023/09/24 02:11:03;;;;;;;0.50;0.50;;;;;;;10.29;96.38;97625.28;29393;218;64009;-53
2023/09/24 02:11:34;;;;;;;0.50;0.50;;;;;;;10.29;96.64;97622.56;29393;223;64013;-52
2023/09/24 02:12:09;;;;;;;0.50;0.50;;;;;;;10.30;96.33;97618.78;29395;234;63005;-53
2023/09/24 02:12:42;;;;;;;0.50;0.50;;;;;;;10.30;96.27;97624.19;29395;235;63009;-53
2023/09/24 02:13:14;;;;;;;0.50;0.50;;;;;;;10.30;96.24;97613.34;29395;274;63004;-54
2023/09/24 02:13:46;;;;;;;0.50;0.50;;;;;;;10.29;96.31;97622.56;29393;259;64013;-54
2023/09/24 02:14:19;;;;;;;0.50;0.50;;;;;;;10.28;96.63;97613.63;29393;210;64001;-53
2023/09/24 02:14:51;;;;;;;0.50;0.50;;;;;;;10.27;96.63;97622.03;29393;214;64013;-52
2023/09/24 02:15:23;;;;;;;0.50;0.50;;;;;;;10.27;96.68;97624.75;29395;297;63004;-53
2023/09/24 02:15:54;;;;;;;0.50;0.50;;;;;;;10.26;96.84;97623.94;29395;198;63008;-54
2023/09/24 02:16:27;;;;;;;0.50;0.50;;;;;;;10.25;96.62;97622.31;29395;241;63010;-53
2023/09/24 02:16:59;;;;;;;0.50;0.50;;;;;;;10.24;96.95;97626.09;29395;257;63021;-53
2023/09/24 02:17:30;;;;;;;0.50;0.50;;;;;;;10.24;96.96;97630.72;29395;219;63009;-53
2023/09/24 02:18:04;;;;;;;0.50;0.50;;;;;;;10.25;97.01;97632.34;29395;309;63009;-53
2023/09/24 02:18:36;;;;;;;0.50;0.50;;;;;;;10.25;96.79;97632.34;29395;208;63005;-53
2023/09/24 02:19:07;;;;;;;0.50;0.50;;;;;;;10.25;96.84;97630.44;29395;412;63009;-53
2023/09/24 02:19:41;;;;;;;0.50;0.50;;;;;;;10.25;96.85;97632.34;29395;218;64009;-53
2023/09/24 02:20:31;;;;;;;0.50;0.50;;;;;;;10.25;96.77;97629.63;29395;205;63009;-53
2023/09/24 02:21:14;;;;;;;0.50;0.50;;;;;;;10.21;96.71;97621.22;29395;226;63004;-54
2023/09/24 02:21:45;;;;;;;0.50;0.50;;;;;;;10.20;96.92;97619.59;29395;216;63009;-54
2023/09/24 02:22:17;;;;;;;0.50;0.50;;;;;;;10.19;96.96;97628.81;29395;221;63010;-54
2023/09/24 02:22:56;;;;;;;0.50;0.50;;;;;;;10.20;97.09;97626.91;29395;202;63008;-54
2023/09/24 02:23:29;;;;;;;0.50;0.50;;;;;;;10.19;96.69;97625.25;29417;214;63004;-53
2023/09/24 02:24:00;;;;;;;0.50;0.50;;;;;;;10.18;96.86;97632.56;29395;254;63009;-53
2023/09/24 02:24:33;;;;;;;0.50;0.50;;;;;;;10.14;97.04;97630.69;29395;221;63005;-54
2023/09/24 02:25:10;;;;;;;0.50;0.50;;;;;;;10.11;97.21;97631.22;29394;306;64013;-53
2023/09/24 02:25:41;;;;;;;0.50;0.50;;;;;;;10.09;97.41;97635.00;29395;250;63004;-54
2023/09/24 02:26:13;;;;;;;0.50;0.50;;;;;;;10.11;97.56;97631.22;29395;226;63009;-54
2023/09/24 02:26:44;;;;;;;0.50;0.50;;;;;;;10.12;97.34;97635.56;29395;241;63005;-54
2023/09/24 02:27:16;;;;;;;0.50;0.50;;;;;;;10.11;97.35;97634.75;29395;246;63009;-54
2023/09/24 02:27:51;;;;;;;0.50;0.50;;;;;;;10.13;97.08;97639.91;29395;244;63004;-54
2023/09/24 02:28:24;;;;;;;0.50;0.50;;;;;;;10.13;96.97;97639.91;29395;356;63009;-53
2023/09/24 02:28:55;;;;;;;0.50;0.50;;;;;;;10.12;96.83;97639.06;29395;227;63004;-53
2023/09/24 02:29:26;;;;;;;0.50;0.50;;;;;;;10.12;97.29;97635.56;29394;229;64013;-54
2023/09/24 02:29:58;;;;;;;0.50;0.50;;;;;;;10.11;97.14;97647.47;29395;270;63004;-54
2023/09/24 02:30:31;;;;;;;0.50;0.50;;;;;;;10.08;97.12;97641.53;29395;267;63008;-54
2023/09/24 02:31:04;;;;;;;0.50;0.50;;;;;;;10.08;97.25;97636.09;29395;197;63005;-54
2023/09/24 02:31:35;;;;;;;0.50;0.50;;;;;;;10.11;97.53;97650.19;29394;245;64014;-53
2023/09/24 02:32:08;;;;;;;0.50;0.50;;;;;;;10.09;97.28;97635.00;29395;265;63005;-53
2023/09/24 02:32:39;;;;;;;0.50;0.50;;;;;;;10.08;97.70;97638.81;29395;204;63009;-54
2023/09/24 02:33:11;;;;;;;0.50;0.50;;;;;;;10.08;97.46;97638.81;29395;203;63015;-54
2023/09/24 02:33:43;;;;;;;0.50;0.50;;;;;;;10.08;97.55;97638.81;29395;203;63009;-55
2023/09/24 02:34:15;;;;;;;0.50;0.50;;;;;;;10.05;97.45;97642.06;29395;218;63017;-54
2023/09/24 02:34:46;;;;;;;0.50;0.50;;;;;;;10.05;97.70;97642.06;29395;196;63009;-54
2023/09/24 02:35:17;;;;;;;0.50;0.50;;;;;;;10.03;97.61;97635.31;29395;209;63004;-53